Placida, Florida
Current Conditions -  °F | °C
As of 4:53 PM on Thursday 27 Nov 2014 (Local Time) from KPGD Reporting Station
Clear Clear  
Wind Chill: 69°   Ceiling: Unl
Heat Index: 69°   Visibility: 10mi
Dew Point: 50°   Wind: 14mph
Humidity: 51%   Direction: 330°NNW
Pressure: 30.21"   Gusts: NA
Location:  26.83°N, 82.26°W
Report Text: KPGD 272153Z 33012KT 10SM CLR 21/10 A3021 RMK AO2 SLP229 T02060100
Loading
Personal Weather Stations






























Interactive Weather Map New forecast layout! Learn more

10-Day Weather Forecast

Advertisements
Track Severe Weather on mobile